createdAt,value
2023-03-20T00:03:46.802Z,74.49
2023-03-20T00:08:52.479Z,74.65
2023-03-20T00:13:57.718Z,74.59
2023-03-20T00:19:00.649Z,74.66
2023-03-20T00:24:03.154Z,74.96
2023-03-20T00:29:07.241Z,75.55
2023-03-20T00:34:14.136Z,75.92
2023-03-20T00:39:16.606Z,75.89
2023-03-20T00:44:31.850Z,75.96
2023-03-20T00:49:35.865Z,76.03
2023-03-20T00:54:38.510Z,76.56
2023-03-20T00:59:53.508Z,77.07
2023-03-20T01:04:56.063Z,77.41
2023-03-20T01:09:58.601Z,77.16
2023-03-20T01:15:01.174Z,77.35
2023-03-20T01:20:10.816Z,77.51
2023-03-20T01:25:13.558Z,77.69
2023-03-20T01:30:20.167Z,77.87
2023-03-20T01:35:25.519Z,78.27
2023-03-20T01:40:52.546Z,78.24
2023-03-20T01:46:01.509Z,77.90
2023-03-20T01:51:04.269Z,78.17
2023-03-20T01:56:07.443Z,78.31
2023-03-20T02:01:13.613Z,78.07
2023-03-20T02:06:16.489Z,78.02
2023-03-20T02:11:22.532Z,77.72
2023-03-20T02:16:25.845Z,77.46
2023-03-20T02:22:11.279Z,77.51
2023-03-20T02:27:33.105Z,78.06
2023-03-20T02:32:54.577Z,78.40
2023-03-20T02:38:18.712Z,78.53
2023-03-20T02:44:01.214Z,78.66
2023-03-20T02:49:33.088Z,78.18
2023-03-20T02:54:49.881Z,78.14
2023-03-20T03:00:02.247Z,78.37
2023-03-20T03:05:13.942Z,78.49
2023-03-20T03:10:36.898Z,78.44
2023-03-20T03:15:46.258Z,78.36
2023-03-20T03:20:55.586Z,78.27
2023-03-20T03:26:01.054Z,78.45
2023-03-20T03:31:09.386Z,78.56
2023-03-20T03:36:36.610Z,78.88
2023-03-20T03:41:47.144Z,79.14
2023-03-20T03:46:58.059Z,78.84
2023-03-20T03:52:05.389Z,78.78
2023-03-20T03:57:10.944Z,78.84
2023-03-20T04:02:14.553Z,78.88
2023-03-20T04:07:17.374Z,79.32
2023-03-20T04:12:44.216Z,79.25
2023-03-20T04:17:46.745Z,79.09
2023-03-20T04:22:49.351Z,78.97
2023-03-20T04:27:52.570Z,79.31
2023-03-20T04:32:55.067Z,79.61
2023-03-20T04:37:57.769Z,79.69
2023-03-20T04:43:00.319Z,79.78
2023-03-20T04:48:02.907Z,80.16
2023-03-20T04:53:05.836Z,80.65
2023-03-20T04:58:08.315Z,80.59
2023-03-20T05:03:10.845Z,80.36
2023-03-20T05:08:13.417Z,80.51
2023-03-20T05:13:16.108Z,80.81
2023-03-20T05:18:18.701Z,81.10
2023-03-20T05:23:21.310Z,81.25
2023-03-20T05:28:23.807Z,80.23
2023-03-20T05:33:26.268Z,80.13
2023-03-20T05:38:28.761Z,79.75
2023-03-20T05:43:31.814Z,79.40
2023-03-20T05:48:34.338Z,79.28
2023-03-20T05:53:36.805Z,79.01
2023-03-20T05:58:39.397Z,78.59
2023-03-20T06:03:42.459Z,78.58
2023-03-20T06:08:45.282Z,78.34
2023-03-20T06:13:47.940Z,77.31
2023-03-20T06:18:50.634Z,76.87
2023-03-20T06:23:54.704Z,76.67
2023-03-20T06:28:57.206Z,76.36
2023-03-20T06:33:59.721Z,75.93
2023-03-20T06:39:03.375Z,75.79
2023-03-20T06:44:05.868Z,75.59
2023-03-20T06:49:08.303Z,75.27
2023-03-20T06:54:10.995Z,74.98
2023-03-20T06:59:13.921Z,74.77
2023-03-20T07:04:17.290Z,74.02
2023-03-20T07:09:22.035Z,72.53
2023-03-20T07:14:24.631Z,70.70
2023-03-20T07:19:27.756Z,69.89
2023-03-20T07:24:30.696Z,67.42
2023-03-20T07:29:33.186Z,65.84
2023-03-20T07:34:35.957Z,65.40
2023-03-20T07:39:38.543Z,65.89
2023-03-20T07:44:41.106Z,65.60
2023-03-20T07:49:43.635Z,64.63
2023-03-20T07:54:46.396Z,62.94
2023-03-20T07:59:48.893Z,62.77
2023-03-20T08:04:51.649Z,62.84
2023-03-20T08:09:54.984Z,62.98
2023-03-20T08:14:57.546Z,63.15
2023-03-20T08:20:00.716Z,62.55
2023-03-20T08:25:03.430Z,63.30
2023-03-20T08:30:07.007Z,64.13
2023-03-20T08:35:19.162Z,64.55
2023-03-20T08:40:32.692Z,65.21
2023-03-20T08:45:35.617Z,65.30
2023-03-20T08:50:38.388Z,65.76
2023-03-20T08:55:41.347Z,65.91
2023-03-20T09:00:44.236Z,65.76
2023-03-20T09:05:48.623Z,66.24
2023-03-20T09:10:53.444Z,65.26
2023-03-20T09:15:56.995Z,65.38
2023-03-20T09:20:59.935Z,65.10
2023-03-20T09:26:02.521Z,65.20
2023-03-20T09:31:05.339Z,63.83
2023-03-20T09:36:11.415Z,63.35
2023-03-20T09:41:21.703Z,62.71
2023-03-20T09:46:38.402Z,63.00
2023-03-20T09:51:56.096Z,63.49
2023-03-20T09:57:01.001Z,63.33
2023-03-20T10:02:17.076Z,63.40
2023-03-20T10:07:20.489Z,63.57
2023-03-20T10:12:46.759Z,63.78
2023-03-20T10:18:02.457Z,64.33
2023-03-20T10:23:16.412Z,64.86
2023-03-20T10:28:35.695Z,65.29
2023-03-20T10:33:55.315Z,65.60
2023-03-20T10:39:16.722Z,64.68
2023-03-20T10:44:29.627Z,64.05
2023-03-20T10:49:42.907Z,63.71
2023-03-20T10:54:52.572Z,63.09
2023-03-20T10:59:57.856Z,62.75
2023-03-20T11:05:02.561Z,62.61
2023-03-20T11:10:05.063Z,61.44
2023-03-20T11:15:22.629Z,61.66
2023-03-20T11:20:26.894Z,62.63
2023-03-20T11:25:36.673Z,63.42
2023-03-20T11:30:51.197Z,64.46
2023-03-20T11:36:21.524Z,65.12
2023-03-20T11:41:28.269Z,65.63
2023-03-20T11:46:30.836Z,65.67
2023-03-20T11:51:35.717Z,65.83
2023-03-20T11:56:38.394Z,66.08
2023-03-20T12:01:46.958Z,66.58
2023-03-20T12:06:56.289Z,67.78
2023-03-20T12:12:25.056Z,69.33
2023-03-20T12:17:35.627Z,70.79
2023-03-20T12:22:49.270Z,71.48
2023-03-20T12:28:03.581Z,71.33
2023-03-20T12:33:29.146Z,71.40
2023-03-20T12:38:34.401Z,71.23
2023-03-20T12:43:49.718Z,71.57
2023-03-20T12:49:14.231Z,72.30
2023-03-20T12:54:22.978Z,71.28
2023-03-20T12:59:51.189Z,70.39
2023-03-20T13:05:14.464Z,69.20
2023-03-20T13:10:29.860Z,68.98
2023-03-20T13:16:03.788Z,68.78
2023-03-20T13:21:14.083Z,69.81
2023-03-20T13:26:38.862Z,69.60
2023-03-20T13:32:25.944Z,68.53
2023-03-20T13:37:38.199Z,67.88
2023-03-20T13:42:52.223Z,67.68
2023-03-20T13:47:56.268Z,67.24
2023-03-20T13:53:05.449Z,66.96
2023-03-20T13:58:29.555Z,66.62
2023-03-20T14:03:38.783Z,66.92
2023-03-20T14:08:47.973Z,67.44
2023-03-20T14:13:55.203Z,67.15
2023-03-20T14:19:10.528Z,66.27
2023-03-20T14:24:17.134Z,64.72
2023-03-20T14:29:30.239Z,65.17
2023-03-20T14:34:48.807Z,65.91
2023-03-20T14:40:04.080Z,67.06
2023-03-20T14:45:12.763Z,67.89
2023-03-20T14:50:23.310Z,68.90
2023-03-20T14:55:27.909Z,70.28
2023-03-20T15:00:43.619Z,70.86
2023-03-20T15:05:46.900Z,71.30
2023-03-20T15:10:59.236Z,71.35
2023-03-20T15:16:08.431Z,71.69
2023-03-20T15:21:16.680Z,71.70
2023-03-20T15:26:21.762Z,72.09
2023-03-20T15:31:32.586Z,72.63
2023-03-20T15:36:39.555Z,73.04
2023-03-20T15:41:51.262Z,73.73
2023-03-20T15:47:11.273Z,74.27
2023-03-20T15:52:32.981Z,75.26
2023-03-20T15:57:40.857Z,76.56
2023-03-20T16:02:48.367Z,77.69
2023-03-20T16:07:51.929Z,77.86
2023-03-20T16:12:55.250Z,78.62
2023-03-20T16:18:00.836Z,78.97
2023-03-20T16:23:07.461Z,79.11
2023-03-20T16:28:14.131Z,79.36
2023-03-20T16:33:17.930Z,80.31
2023-03-20T16:38:33.703Z,81.09
2023-03-20T16:43:38.461Z,79.11
2023-03-20T16:48:42.415Z,82.02
2023-03-20T16:53:48.368Z,84.74
2023-03-20T16:58:50.906Z,88.69
2023-03-20T17:03:56.835Z,93.07
2023-03-20T17:09:00.995Z,97.34
2023-03-20T17:14:04.392Z,100.00
2023-03-20T17:19:20.963Z,100.00
2023-03-20T17:24:23.771Z,100.00
2023-03-20T17:29:26.330Z,100.00
2023-03-20T17:34:28.826Z,100.00
2023-03-20T17:39:31.482Z,100.00
2023-03-20T17:44:35.232Z,100.00
2023-03-20T17:49:37.826Z,100.00
2023-03-20T17:54:40.700Z,100.00
2023-03-20T17:59:43.381Z,100.00
2023-03-20T18:04:46.665Z,100.00
2023-03-20T18:09:49.522Z,100.00
2023-03-20T18:14:52.052Z,100.00
2023-03-20T18:19:54.728Z,100.00
2023-03-20T18:24:57.257Z,100.00
2023-03-20T18:29:59.915Z,100.00
2023-03-20T18:35:02.459Z,100.00
2023-03-20T18:40:07.722Z,100.00
2023-03-20T18:45:10.897Z,100.00
2023-03-20T18:50:29.215Z,100.00
2023-03-20T18:55:32.022Z,100.00
2023-03-20T19:00:40.104Z,100.00
2023-03-20T19:05:43.049Z,100.00
2023-03-20T19:10:46.324Z,100.00
2023-03-20T19:15:49.261Z,100.00
2023-03-20T19:20:55.544Z,100.00
2023-03-20T19:25:57.986Z,100.00
2023-03-20T19:31:00.996Z,100.00
2023-03-20T19:36:04.693Z,100.00
2023-03-20T19:41:08.835Z,100.00
2023-03-20T19:46:28.333Z,100.00
2023-03-20T19:51:38.608Z,100.00
2023-03-20T19:56:41.456Z,100.00
2023-03-20T20:01:45.393Z,100.00
2023-03-20T20:06:48.750Z,100.00
2023-03-20T20:11:51.301Z,100.00
2023-03-20T20:16:53.892Z,100.00
2023-03-20T20:22:27.276Z,100.00
2023-03-20T20:27:19.268Z,100.00
2023-03-20T20:32:24.406Z,100.00
2023-03-20T20:42:51.895Z,100.00
2023-03-20T20:47:55.264Z,100.00
2023-03-20T20:52:58.916Z,100.00
2023-03-20T20:58:03.659Z,100.00
2023-03-20T21:03:06.312Z,100.00
2023-03-20T21:08:09.538Z,100.00
2023-03-20T21:13:15.738Z,100.00
2023-03-20T21:18:18.289Z,100.00
2023-03-20T21:23:22.001Z,100.00
2023-03-20T21:28:25.184Z,100.00
2023-03-20T21:33:27.701Z,100.00
2023-03-20T21:39:02.028Z,100.00
2023-03-20T21:43:53.196Z,100.00
2023-03-20T21:49:43.694Z,100.00
2023-03-20T21:55:00.550Z,100.00
2023-03-20T22:16:43.199Z,100.00
2023-03-20T22:42:57.111Z,100.00
2023-03-20T22:48:05.860Z,100.00
2023-03-20T22:53:08.538Z,100.00
2023-03-20T22:58:14.760Z,100.00
2023-03-20T23:03:29.945Z,100.00
2023-03-20T23:08:49.099Z,100.00
2023-03-20T23:13:53.553Z,100.00
2023-03-20T23:18:56.678Z,100.00
2023-03-20T23:23:59.215Z,100.00
2023-03-20T23:29:03.332Z,100.00
2023-03-20T23:34:06.210Z,100.00
2023-03-20T23:39:11.692Z,100.00
2023-03-20T23:44:14.249Z,100.00
2023-03-20T23:49:17.190Z,100.00
2023-03-20T23:54:19.747Z,100.00
2023-03-20T23:59:22.783Z,100.00
